createdAt,value
2022-10-23T00:02:02.773Z,43.78
2022-10-23T00:04:31.594Z,40.28
2022-10-23T00:07:01.291Z,44.72
2022-10-23T00:09:29.790Z,46.22
2022-10-23T00:11:58.497Z,44.63
2022-10-23T00:14:26.875Z,48.00
2022-10-23T00:16:58.602Z,50.78
2022-10-23T00:19:36.560Z,53.38
2022-10-23T00:22:08.182Z,48.92
2022-10-23T00:24:38.769Z,46.17
2022-10-23T00:27:07.085Z,42.80
2022-10-23T00:29:37.539Z,44.25
2022-10-23T00:32:06.346Z,44.97
2022-10-23T00:34:35.710Z,44.10
2022-10-23T00:37:06.996Z,42.00
2022-10-23T00:39:35.333Z,42.45
2022-10-23T00:42:03.789Z,35.67
2022-10-23T00:45:09.016Z,33.47
2022-10-23T00:47:37.367Z,34.65
2022-10-23T00:50:11.765Z,34.33
2022-10-23T00:52:46.695Z,35.75
2022-10-23T00:55:15.898Z,35.17
2022-10-23T00:57:46.984Z,34.47
2022-10-23T01:00:19.102Z,34.87
2022-10-23T01:02:48.860Z,34.45
2022-10-23T01:05:18.962Z,36.75
2022-10-23T01:07:57.674Z,40.20
2022-10-23T01:10:34.801Z,42.10
2022-10-23T01:13:09.697Z,44.67
2022-10-23T01:15:45.827Z,46.58
2022-10-23T01:18:22.573Z,49.75
2022-10-23T01:21:01.604Z,50.90
2022-10-23T01:23:45.193Z,57.95
2022-10-23T01:26:25.018Z,56.17
2022-10-23T01:29:00.722Z,55.78
2022-10-23T01:31:35.912Z,55.33
2022-10-23T01:34:09.423Z,56.78
2022-10-23T01:36:41.076Z,57.30
2022-10-23T01:39:13.492Z,56.03
2022-10-23T01:41:45.758Z,49.90
2022-10-23T01:44:21.425Z,46.83
2022-10-23T01:46:52.485Z,46.35
2022-10-23T01:49:23.766Z,47.40
2022-10-23T01:51:58.361Z,48.67
2022-10-23T01:54:31.965Z,49.63
2022-10-23T01:57:01.924Z,57.70
2022-10-23T02:02:06.326Z,52.53
2022-10-23T02:04:40.007Z,47.55
2022-10-23T02:07:08.945Z,40.33
2022-10-23T02:09:38.958Z,42.63
2022-10-23T02:12:12.077Z,43.38
2022-10-23T02:14:53.004Z,41.88
2022-10-23T02:17:27.606Z,44.00
2022-10-23T02:20:05.854Z,44.72
2022-10-23T02:22:42.045Z,44.95
2022-10-23T02:25:15.450Z,42.55
2022-10-23T02:27:46.939Z,40.45
2022-10-23T02:30:19.359Z,39.05
2022-10-23T02:32:52.068Z,38.85
2022-10-23T02:35:24.292Z,39.10
2022-10-23T02:37:57.458Z,40.03
2022-10-23T02:40:32.750Z,43.35
2022-10-23T02:43:07.615Z,42.33
2022-10-23T02:45:46.021Z,41.13
2022-10-23T02:48:21.772Z,38.90
2022-10-23T02:50:55.484Z,42.83
2022-10-23T02:53:36.850Z,40.63
2022-10-23T02:56:11.076Z,39.92
2022-10-23T02:58:46.697Z,45.08
2022-10-23T03:01:18.730Z,47.78
2022-10-23T03:03:53.578Z,48.90
2022-10-23T03:06:23.458Z,47.72
2022-10-23T03:08:55.825Z,47.15
2022-10-23T03:11:24.276Z,45.78
2022-10-23T03:13:57.790Z,38.35
2022-10-23T03:16:28.164Z,38.10
2022-10-23T03:18:56.734Z,36.63
2022-10-23T03:21:27.435Z,39.30
2022-10-23T03:23:56.445Z,40.80
2022-10-23T03:26:26.388Z,40.42
2022-10-23T03:28:56.804Z,41.25
2022-10-23T03:31:28.009Z,44.25
2022-10-23T03:33:58.293Z,44.35
2022-10-23T03:36:34.973Z,45.10
2022-10-23T03:39:07.271Z,47.65
2022-10-23T03:41:35.324Z,44.15
2022-10-23T03:44:08.753Z,42.88
2022-10-23T03:46:41.929Z,39.72
2022-10-23T03:49:11.176Z,38.40
2022-10-23T03:51:41.733Z,39.67
2022-10-23T03:54:12.703Z,40.00
2022-10-23T03:56:40.833Z,41.63
2022-10-23T03:59:09.965Z,41.75
2022-10-23T04:01:40.411Z,45.13
2022-10-23T04:04:08.884Z,43.67
2022-10-23T04:06:37.360Z,44.83
2022-10-23T04:09:06.488Z,43.90
2022-10-23T04:11:34.948Z,42.67
2022-10-23T04:14:03.367Z,44.67
2022-10-23T04:16:31.648Z,43.50
2022-10-23T04:19:01.574Z,42.95
2022-10-23T04:21:29.819Z,42.72
2022-10-23T04:23:58.200Z,42.17
2022-10-23T04:26:26.436Z,43.50
2022-10-23T04:28:55.979Z,40.72
2022-10-23T04:31:24.570Z,38.60
2022-10-23T04:33:52.635Z,37.22
2022-10-23T04:36:24.883Z,37.78
2022-10-23T04:38:53.816Z,35.72
2022-10-23T04:41:24.542Z,35.28
2022-10-23T04:43:52.898Z,34.97
2022-10-23T04:46:22.252Z,36.97
2022-10-23T04:48:50.406Z,37.35
2022-10-23T04:51:18.697Z,38.10
2022-10-23T04:53:55.239Z,40.38
2022-10-23T04:56:23.492Z,43.38
2022-10-23T04:58:52.762Z,42.92
2022-10-23T05:01:21.079Z,43.63
2022-10-23T05:03:49.661Z,42.58
2022-10-23T05:06:17.936Z,43.92
2022-10-23T05:08:46.240Z,42.75
2022-10-23T05:11:17.101Z,42.70
2022-10-23T05:13:46.377Z,46.20
2022-10-23T05:16:26.375Z,49.13
2022-10-23T05:18:57.136Z,53.15
2022-10-23T05:21:30.497Z,57.10
2022-10-23T05:24:02.640Z,61.70
2022-10-23T05:26:34.807Z,61.25
2022-10-23T05:29:03.297Z,61.08
2022-10-23T05:31:35.544Z,64.45
2022-10-23T05:34:04.302Z,67.38
2022-10-23T05:36:32.827Z,58.13
2022-10-23T05:39:01.050Z,57.95
2022-10-23T05:41:29.732Z,51.28
2022-10-23T05:43:59.647Z,51.15
2022-10-23T05:46:29.412Z,53.63
2022-10-23T05:51:31.399Z,52.55
2022-10-23T05:54:00.138Z,62.22
2022-10-23T05:56:29.582Z,54.90
2022-10-23T05:59:07.874Z,51.47
2022-10-23T06:01:36.525Z,56.00
2022-10-23T06:04:09.241Z,57.20
2022-10-23T06:06:37.870Z,55.72
2022-10-23T06:09:09.162Z,68.07
2022-10-23T06:11:42.916Z,56.25
2022-10-23T06:14:12.847Z,68.47
2022-10-23T06:16:47.574Z,64.53
2022-10-23T06:19:16.744Z,94.03
2022-10-23T06:21:44.936Z,80.90
2022-10-23T06:24:14.480Z,66.72
2022-10-23T06:26:45.871Z,90.88
2022-10-23T06:29:15.535Z,75.65
2022-10-23T06:31:50.535Z,69.97
2022-10-23T06:34:22.036Z,81.78
2022-10-23T06:36:50.260Z,75.50
2022-10-23T06:39:23.719Z,74.35
2022-10-23T06:41:54.513Z,73.57
2022-10-23T06:44:24.257Z,77.90
2022-10-23T06:46:55.755Z,66.30
2022-10-23T06:49:25.300Z,69.80
2022-10-23T06:51:57.189Z,73.28
2022-10-23T06:54:27.285Z,67.03
2022-10-23T06:56:55.371Z,68.90
2022-10-23T06:59:26.265Z,76.38
2022-10-23T07:01:59.149Z,70.10
2022-10-23T07:04:28.006Z,72.05
2022-10-23T07:06:58.719Z,75.35
2022-10-23T07:09:27.255Z,74.05
2022-10-23T07:11:57.614Z,80.57
2022-10-23T07:14:32.624Z,76.22
2022-10-23T07:17:04.108Z,78.03
2022-10-23T07:19:32.524Z,80.65
2022-10-23T07:22:02.223Z,79.25
2022-10-23T07:24:37.411Z,84.47
2022-10-23T07:27:07.278Z,88.35
2022-10-23T07:29:39.740Z,84.80
2022-10-23T07:32:09.299Z,90.97
2022-10-23T07:34:37.764Z,85.57
2022-10-23T07:37:16.722Z,83.97
2022-10-23T07:39:46.827Z,78.68
2022-10-23T07:42:15.063Z,80.18
2022-10-23T07:44:45.353Z,77.53
2022-10-23T07:47:13.682Z,72.05
2022-10-23T07:49:42.125Z,76.07
2022-10-23T07:52:10.524Z,72.55
2022-10-23T07:54:40.795Z,68.18
2022-10-23T07:57:12.602Z,58.85
2022-10-23T08:02:14.231Z,53.95
2022-10-23T08:04:43.051Z,52.15
2022-10-23T08:07:11.150Z,53.15
2022-10-23T08:09:39.964Z,51.67
2022-10-23T08:12:12.197Z,47.72
2022-10-23T08:14:41.063Z,48.60
2022-10-23T08:17:09.895Z,47.10
2022-10-23T08:19:48.204Z,46.13
2022-10-23T08:22:17.872Z,41.00
2022-10-23T08:24:49.757Z,42.03
2022-10-23T08:27:23.520Z,41.42
2022-10-23T08:29:52.153Z,40.35
2022-10-23T08:32:20.381Z,41.47
2022-10-23T08:34:50.516Z,42.38
2022-10-23T08:37:20.894Z,41.33
2022-10-23T08:39:53.256Z,41.78
2022-10-23T08:42:24.322Z,38.85
2022-10-23T08:45:00.394Z,37.28
2022-10-23T08:47:38.124Z,35.55
2022-10-23T08:50:15.374Z,33.85
2022-10-23T08:52:49.009Z,32.08
2022-10-23T08:55:24.536Z,31.17
2022-10-23T08:57:58.356Z,28.30
2022-10-23T09:00:29.434Z,28.40
2022-10-23T09:03:02.784Z,26.45
2022-10-23T09:05:37.900Z,24.65
2022-10-23T09:08:25.039Z,22.92
2022-10-23T09:11:05.657Z,22.48
2022-10-23T09:14:03.074Z,21.90
2022-10-23T09:16:50.691Z,20.45
2022-10-23T09:19:25.199Z,22.25
2022-10-23T09:21:56.787Z,22.33
2022-10-23T09:24:27.570Z,22.58
2022-10-23T09:26:56.126Z,23.80
2022-10-23T09:29:27.009Z,23.90
2022-10-23T09:31:57.344Z,24.50
2022-10-23T09:34:27.600Z,23.17
2022-10-23T09:36:59.809Z,25.33
2022-10-23T09:39:30.598Z,25.65
2022-10-23T09:41:59.864Z,23.67
2022-10-23T09:44:31.974Z,22.75
2022-10-23T09:47:02.532Z,22.45
2022-10-23T09:49:33.992Z,23.40
2022-10-23T09:52:09.230Z,21.80
2022-10-23T09:54:45.073Z,21.77
2022-10-23T09:57:24.449Z,22.17
2022-10-23T10:00:00.814Z,22.83
2022-10-23T10:02:31.462Z,24.08
2022-10-23T10:05:02.222Z,24.65
2022-10-23T10:07:34.783Z,24.42
2022-10-23T10:10:16.115Z,23.85
2022-10-23T10:12:51.222Z,23.27
2022-10-23T10:15:23.954Z,23.45
2022-10-23T10:18:17.627Z,24.42
2022-10-23T10:21:12.802Z,23.30
2022-10-23T10:23:53.037Z,22.63
2022-10-23T10:26:36.090Z,22.30
2022-10-23T10:29:19.070Z,21.17
2022-10-23T10:31:59.203Z,22.88
2022-10-23T10:34:33.923Z,22.67
2022-10-23T10:37:15.962Z,21.90
2022-10-23T10:39:57.425Z,20.90
2022-10-23T10:42:45.739Z,22.05
2022-10-23T10:45:26.625Z,21.92
2022-10-23T10:48:14.700Z,22.30
2022-10-23T10:50:49.287Z,21.15
2022-10-23T10:53:25.551Z,22.30
2022-10-23T10:55:56.638Z,21.30
2022-10-23T10:58:36.763Z,20.85
2022-10-23T11:01:16.968Z,19.90
2022-10-23T11:03:53.642Z,19.70
2022-10-23T11:06:25.567Z,19.50
2022-10-23T11:08:57.369Z,19.52
2022-10-23T11:11:42.542Z,20.60
2022-10-23T11:14:16.841Z,21.10
2022-10-23T11:16:51.762Z,20.75
2022-10-23T11:19:24.640Z,20.27
2022-10-23T11:22:03.605Z,19.50
2022-10-23T11:25:24.389Z,20.40
2022-10-23T11:28:27.649Z,19.70
2022-10-23T11:31:12.128Z,18.27
2022-10-23T11:34:10.041Z,17.40
2022-10-23T11:36:45.611Z,16.35
2022-10-23T11:39:25.305Z,16.98
2022-10-23T11:41:56.657Z,16.88
2022-10-23T11:44:42.653Z,16.90
2022-10-23T11:47:28.363Z,17.38
2022-10-23T11:50:16.609Z,16.83
2022-10-23T11:53:15.021Z,16.50
2022-10-23T11:55:59.253Z,18.60
2022-10-23T11:58:41.556Z,18.33
2022-10-23T12:01:26.001Z,18.67
2022-10-23T12:04:01.517Z,18.60
2022-10-23T12:06:39.861Z,18.33
2022-10-23T12:09:28.420Z,18.88
2022-10-23T12:12:21.130Z,18.80
2022-10-23T12:14:54.198Z,19.02
2022-10-23T12:17:36.568Z,18.13
2022-10-23T12:20:29.433Z,17.10
2022-10-23T12:23:14.993Z,17.70
2022-10-23T12:25:52.675Z,18.30
2022-10-23T12:28:33.596Z,18.25
2022-10-23T12:31:20.734Z,18.70
2022-10-23T12:34:00.648Z,18.52
2022-10-23T12:36:46.072Z,17.55
2022-10-23T12:39:29.550Z,17.75
2022-10-23T12:42:00.394Z,16.35
2022-10-23T12:44:31.324Z,14.38
2022-10-23T12:47:02.251Z,14.23
2022-10-23T12:49:36.370Z,14.93
2022-10-23T12:52:14.909Z,13.95
2022-10-23T12:54:45.729Z,14.18
2022-10-23T12:57:23.244Z,15.27
2022-10-23T13:00:00.563Z,15.15
2022-10-23T13:02:32.194Z,15.43
2022-10-23T13:10:06.183Z,15.45
2022-10-23T13:12:41.119Z,16.73
2022-10-23T13:15:20.185Z,16.13
2022-10-23T13:18:05.079Z,15.35
2022-10-23T13:20:38.093Z,14.48
2022-10-23T13:23:19.231Z,14.27
2022-10-23T13:25:57.219Z,13.65
2022-10-23T13:28:33.725Z,13.52
2022-10-23T13:31:25.702Z,13.10
2022-10-23T13:34:06.992Z,13.45
2022-10-23T13:36:41.380Z,13.10
2022-10-23T13:39:16.970Z,13.10
2022-10-23T13:41:46.827Z,12.85
2022-10-23T13:44:17.048Z,14.55
2022-10-23T13:46:52.742Z,13.93
2022-10-23T13:49:25.856Z,13.20
2022-10-23T13:51:58.848Z,12.20
2022-10-23T13:54:30.082Z,12.10
2022-10-23T13:57:06.483Z,11.63
2022-10-23T13:59:37.644Z,11.75
2022-10-23T14:02:18.647Z,12.25
2022-10-23T14:04:47.424Z,12.02
2022-10-23T14:07:21.767Z,11.65
2022-10-23T14:09:52.055Z,11.40
2022-10-23T14:12:22.869Z,11.80
2022-10-23T14:14:55.640Z,12.23
2022-10-23T14:17:27.874Z,11.93
2022-10-23T14:19:58.550Z,11.80
2022-10-23T14:22:32.855Z,13.43
2022-10-23T14:25:05.436Z,14.52
2022-10-23T14:27:38.358Z,13.65
2022-10-23T14:30:08.506Z,12.90
2022-10-23T14:32:41.185Z,12.43
2022-10-23T14:35:13.682Z,12.50
2022-10-23T14:37:48.756Z,11.98
2022-10-23T14:40:18.830Z,12.15
2022-10-23T14:42:52.098Z,12.70
2022-10-23T14:45:21.870Z,12.70
2022-10-23T14:47:50.563Z,12.48
2022-10-23T14:50:22.659Z,12.23
2022-10-23T14:52:53.936Z,11.65
2022-10-23T14:55:22.229Z,12.17
2022-10-23T14:58:00.163Z,11.77
2022-10-23T15:00:30.386Z,11.43
2022-10-23T15:03:02.841Z,11.70
2022-10-23T15:05:35.892Z,11.65
2022-10-23T15:08:10.684Z,12.00
2022-10-23T15:10:42.729Z,11.45
2022-10-23T15:13:15.070Z,11.98
2022-10-23T15:15:46.637Z,12.27
2022-10-23T15:18:21.701Z,11.98
2022-10-23T15:20:54.013Z,12.18
2022-10-23T15:23:32.016Z,12.98
2022-10-23T15:26:03.447Z,12.57
2022-10-23T15:28:35.477Z,12.25
2022-10-23T15:31:05.412Z,12.27
2022-10-23T15:33:47.312Z,13.15
2022-10-23T15:36:16.949Z,17.50
2022-10-23T15:38:52.204Z,18.52
2022-10-23T15:41:28.504Z,17.05
2022-10-23T15:43:59.599Z,14.70
2022-10-23T15:46:33.936Z,14.83
2022-10-23T15:49:03.374Z,26.85
2022-10-23T15:51:40.738Z,23.50
2022-10-23T15:54:13.542Z,22.10
2022-10-23T15:56:44.467Z,21.65
2022-10-23T15:59:16.079Z,21.33
2022-10-23T16:01:49.285Z,21.83
2022-10-23T16:04:20.568Z,22.42
2022-10-23T16:06:52.311Z,22.00
2022-10-23T16:11:50.592Z,19.67
2022-10-23T16:14:19.607Z,17.98
2022-10-23T16:16:48.204Z,15.88
2022-10-23T16:19:18.685Z,16.90
2022-10-23T16:21:47.144Z,16.92
2022-10-23T16:24:20.765Z,15.98
2022-10-23T16:26:53.430Z,15.83
2022-10-23T16:29:22.251Z,15.75
2022-10-23T16:31:51.207Z,16.02
2022-10-23T16:34:21.613Z,14.90
2022-10-23T16:36:51.820Z,15.20
2022-10-23T16:39:23.147Z,15.57
2022-10-23T16:41:51.552Z,14.98
2022-10-23T16:44:20.231Z,15.15
2022-10-23T16:46:48.780Z,17.55
2022-10-23T16:49:17.763Z,17.58
2022-10-23T16:51:46.919Z,16.92
2022-10-23T16:54:15.899Z,15.18
2022-10-23T16:56:46.023Z,16.02
2022-10-23T16:59:14.403Z,15.02
2022-10-23T17:01:43.472Z,15.80
2022-10-23T17:04:12.159Z,15.15
2022-10-23T17:06:42.101Z,14.27
2022-10-23T17:09:10.843Z,13.48
2022-10-23T17:11:41.053Z,12.35
2022-10-23T17:14:15.876Z,11.88
2022-10-23T17:16:47.344Z,10.27
2022-10-23T17:19:33.145Z,9.93
2022-10-23T17:22:10.856Z,11.20
2022-10-23T17:24:40.965Z,11.88
2022-10-23T17:27:10.389Z,12.73
2022-10-23T17:29:40.469Z,12.20
2022-10-23T17:32:09.154Z,12.00
2022-10-23T17:34:39.428Z,11.43
2022-10-23T17:37:08.199Z,12.13
2022-10-23T17:39:37.036Z,11.23
2022-10-23T17:42:05.500Z,10.98
2022-10-23T17:44:34.626Z,12.38
2022-10-23T17:47:04.872Z,11.80
2022-10-23T17:49:34.174Z,11.77
2022-10-23T17:52:03.159Z,10.85
2022-10-23T17:54:31.679Z,9.65
2022-10-23T17:57:00.378Z,9.73
2022-10-23T17:59:29.252Z,9.02
2022-10-23T18:02:00.248Z,7.72
2022-10-23T18:04:32.596Z,8.25
2022-10-23T18:07:01.609Z,6.07
2022-10-23T18:09:30.081Z,6.90
2022-10-23T18:11:59.040Z,6.30
2022-10-23T18:14:29.661Z,6.30
2022-10-23T18:16:58.435Z,6.35
2022-10-23T18:19:28.482Z,7.18
2022-10-23T18:21:59.459Z,7.75
2022-10-23T18:24:27.900Z,8.02
2022-10-23T18:26:57.073Z,7.50
2022-10-23T18:29:26.638Z,7.03
2022-10-23T18:31:55.774Z,7.07
2022-10-23T18:34:26.092Z,7.30
2022-10-23T18:37:01.292Z,6.95
2022-10-23T18:39:32.448Z,7.80
2022-10-23T18:42:02.059Z,8.20
2022-10-23T18:44:31.386Z,8.68
2022-10-23T18:47:00.977Z,8.52
2022-10-23T18:49:29.799Z,7.70
2022-10-23T18:51:59.753Z,7.30
2022-10-23T18:54:54.278Z,7.75
2022-10-23T18:57:24.606Z,7.63
2022-10-23T18:59:58.627Z,8.30
2022-10-23T19:02:28.076Z,8.48
2022-10-23T19:04:57.964Z,7.93
2022-10-23T19:07:29.051Z,7.78
2022-10-23T19:09:59.160Z,7.75
2022-10-23T19:12:27.993Z,7.60
2022-10-23T19:14:57.154Z,7.72
2022-10-23T19:17:29.861Z,8.23
2022-10-23T19:20:02.940Z,8.77
2022-10-23T19:22:37.004Z,8.10
2022-10-23T19:25:11.842Z,8.52
2022-10-23T19:27:41.652Z,8.38
2022-10-23T19:30:15.525Z,7.78
2022-10-23T19:32:46.762Z,8.32
2022-10-23T19:35:18.464Z,8.38
2022-10-23T19:40:17.699Z,8.13
2022-10-23T19:42:46.343Z,8.50
2022-10-23T19:45:17.057Z,8.55
2022-10-23T19:47:46.290Z,8.23
2022-10-23T19:50:16.124Z,9.18
2022-10-23T19:52:46.385Z,8.73
2022-10-23T19:55:21.138Z,9.07
2022-10-23T19:57:53.120Z,8.63
2022-10-23T20:00:24.429Z,9.02
2022-10-23T20:02:55.330Z,9.02
2022-10-23T20:05:25.708Z,8.88
2022-10-23T20:07:56.449Z,9.35
2022-10-23T20:10:26.824Z,9.02
2022-10-23T20:13:08.150Z,8.85
2022-10-23T20:15:48.063Z,9.20
2022-10-23T20:18:16.696Z,9.15
2022-10-23T20:20:45.781Z,9.02
2022-10-23T20:23:16.602Z,8.98
2022-10-23T20:25:48.277Z,9.00
2022-10-23T20:28:17.627Z,10.00
2022-10-23T20:30:47.041Z,9.38
2022-10-23T20:33:16.629Z,9.18
2022-10-23T20:35:47.677Z,9.45
2022-10-23T20:38:17.696Z,9.80
2022-10-23T20:40:49.578Z,10.43
2022-10-23T20:43:18.223Z,9.95
2022-10-23T20:45:46.991Z,9.80
2022-10-23T20:48:15.662Z,10.32
2022-10-23T20:50:45.846Z,9.88
2022-10-23T20:53:15.414Z,9.90
2022-10-23T20:55:46.806Z,9.77
2022-10-23T20:58:20.047Z,10.00
2022-10-23T21:00:50.356Z,9.82
2022-10-23T21:03:20.095Z,9.48
2022-10-23T21:05:50.989Z,10.30
2022-10-23T21:08:21.255Z,10.60
2022-10-23T21:10:49.495Z,11.38
2022-10-23T21:13:19.229Z,11.18
2022-10-23T21:15:48.301Z,11.20
2022-10-23T21:18:26.536Z,10.88
2022-10-23T21:21:03.156Z,12.43
2022-10-23T21:23:32.899Z,12.38
2022-10-23T21:26:06.326Z,12.75
2022-10-23T21:28:40.020Z,13.52
2022-10-23T21:31:13.580Z,12.63
2022-10-23T21:33:44.092Z,13.45
2022-10-23T21:36:17.122Z,13.40
2022-10-23T21:38:45.997Z,13.15
2022-10-23T21:41:16.444Z,13.60
2022-10-23T21:43:47.048Z,13.05
2022-10-23T21:46:19.232Z,15.00
2022-10-23T21:48:51.325Z,14.48
2022-10-23T21:51:25.818Z,14.43
2022-10-23T21:53:55.130Z,14.95
2022-10-23T21:56:31.191Z,14.68
2022-10-23T22:01:40.778Z,15.18
2022-10-23T22:04:11.440Z,14.93
2022-10-23T22:06:40.013Z,14.82
2022-10-23T22:09:09.658Z,15.88
2022-10-23T22:11:38.359Z,16.63
2022-10-23T22:14:10.468Z,15.15
2022-10-23T22:16:39.338Z,16.20
2022-10-23T22:19:07.849Z,16.08
2022-10-23T22:21:35.958Z,17.77
2022-10-23T22:24:09.591Z,16.98
2022-10-23T22:29:11.846Z,17.10
2022-10-23T22:31:44.216Z,17.27
2022-10-23T22:34:28.744Z,18.48
2022-10-23T22:37:07.459Z,19.00
2022-10-23T22:39:36.166Z,19.67
2022-10-23T22:42:04.444Z,19.88
2022-10-23T22:44:35.618Z,18.02
2022-10-23T22:47:06.424Z,19.60
2022-10-23T22:52:07.602Z,18.73
2022-10-23T22:54:38.724Z,18.58
2022-10-23T22:57:11.563Z,19.15
2022-10-23T22:59:42.004Z,18.50
2022-10-23T23:02:10.316Z,18.17
2022-10-23T23:04:39.523Z,18.35
2022-10-23T23:07:08.854Z,18.88
2022-10-23T23:09:39.235Z,18.95
2022-10-23T23:12:09.177Z,17.92
2022-10-23T23:14:37.418Z,18.95
2022-10-23T23:17:08.359Z,19.05
2022-10-23T23:19:37.021Z,19.67
2022-10-23T23:22:05.756Z,19.25
2022-10-23T23:24:34.455Z,19.88
2022-10-23T23:27:03.179Z,19.23
2022-10-23T23:29:31.737Z,19.25
2022-10-23T23:31:59.867Z,19.05
2022-10-23T23:34:30.507Z,20.27
2022-10-23T23:36:58.947Z,20.10
2022-10-23T23:39:28.772Z,20.42
2022-10-23T23:41:57.238Z,19.92
2022-10-23T23:44:25.390Z,20.50
2022-10-23T23:46:56.938Z,20.48
2022-10-23T23:49:26.463Z,22.15
2022-10-23T23:51:56.498Z,21.88
2022-10-23T23:54:24.699Z,22.02
2022-10-23T23:56:53.855Z,22.00
2022-10-23T23:59:22.784Z,22.48
